Time;durP1;ratioP1;P1;durP2;ratioP2;P2;SDS_P1;SDS_P2;PMS_P1;PMS_P2;Temp;Humidity;BMP_temperature;BMP_pressure;BME280_temperature;BME280_humidity;BME280_pressure;Samples;Min_cycle;Max_cycle;Signal;HPM_P1;HPM_P2
2021/04/11 00:01:07;;;;;;;15.13;7.60;;;10.10;99.90;;;;;;5129714;27;20495;-64
2021/04/11 00:03:34;;;;;;;12.90;7.43;;;10.10;99.90;;;;;;5133813;27;20864;-64
2021/04/11 00:06:01;;;;;;;11.43;6.80;;;10.00;99.90;;;;;;5132812;27;20914;-64
2021/04/11 00:08:29;;;;;;;10.13;6.17;;;10.00;99.90;;;;;;5134422;27;20873;-63
2021/04/11 00:10:57;;;;;;;14.83;6.33;;;10.00;99.90;;;;;;5134144;27;20449;-64
2021/04/11 00:13:26;;;;;;;9.63;6.27;;;10.00;99.90;;;;;;5133324;27;20446;-63
2021/04/11 00:15:52;;;;;;;10.30;6.33;;;10.00;99.90;;;;;;5133511;27;20540;-63
2021/04/11 00:18:19;;;;;;;9.47;5.70;;;10.00;99.90;;;;;;5133484;27;20831;-63
2021/04/11 00:20:46;;;;;;;9.73;6.10;;;10.00;99.90;;;;;;5133406;27;20536;-62
2021/04/11 00:23:14;;;;;;;9.20;6.13;;;10.00;99.90;;;;;;5129663;27;20891;-62
2021/04/11 00:25:41;;;;;;;14.47;5.53;;;10.00;99.90;;;;;;5132305;27;20519;-63
2021/04/11 00:28:08;;;;;;;9.50;5.30;;;10.00;99.90;;;;;;5131781;27;20493;-63
2021/04/11 00:30:35;;;;;;;8.23;5.20;;;10.00;99.90;;;;;;5133262;27;20440;-63
2021/04/11 00:33:04;;;;;;;8.93;5.77;;;10.00;99.90;;;;;;5132845;27;20479;-63
2021/04/11 00:35:31;;;;;;;9.13;5.37;;;10.00;99.90;;;;;;5127588;27;20527;-62
2021/04/11 00:37:58;;;;;;;10.23;5.80;;;10.00;99.90;;;;;;5129896;27;20436;-65
2021/04/11 00:40:29;;;;;;;11.90;5.63;;;10.00;99.90;;;;;;5133151;27;20582;-63
2021/04/11 00:42:59;;;;;;;9.30;5.53;;;10.00;99.90;;;;;;5133082;27;20466;-63
2021/04/11 00:45:33;;;;;;;9.60;5.60;;;10.00;99.90;;;;;;5132879;27;20486;-63
2021/04/11 00:48:00;;;;;;;8.57;5.50;;;10.00;99.90;;;;;;5133591;27;20476;-63
2021/04/11 00:50:27;;;;;;;11.70;5.90;;;10.00;99.90;;;;;;5127435;27;20473;-63
2021/04/11 00:52:54;;;;;;;8.63;5.03;;;10.00;99.90;;;;;;5130429;27;20527;-63
2021/04/11 00:55:24;;;;;;;8.67;6.17;;;10.00;99.90;;;;;;5133102;27;20456;-63
2021/04/11 00:57:52;;;;;;;9.93;5.77;;;10.10;99.90;;;;;;5132728;27;20853;-62
2021/04/11 01:00:22;;;;;;;8.20;5.43;;;10.10;99.90;;;;;;5125480;27;20448;-63
2021/04/11 01:02:48;;;;;;;8.67;6.00;;;10.10;99.90;;;;;;5133137;27;20540;-62
2021/04/11 01:05:19;;;;;;;10.77;6.30;;;10.00;99.90;;;;;;5132457;27;20468;-63
2021/04/11 01:07:47;;;;;;;10.13;5.87;;;10.10;99.90;;;;;;5132857;27;20536;-64
2021/04/11 01:10:18;;;;;;;9.20;6.10;;;10.00;99.90;;;;;;5133314;27;20864;-64
2021/04/11 01:12:44;;;;;;;11.30;6.77;;;10.00;99.90;;;;;;5132390;27;20456;-64
2021/04/11 01:15:20;;;;;;;9.30;5.40;;;10.00;99.90;;;;;;5132875;27;20469;-63
2021/04/11 01:17:46;;;;;;;9.50;5.97;;;10.00;99.90;;;;;;5132634;27;20875;-63
2021/04/11 01:20:17;;;;;;;9.03;5.70;;;10.00;99.90;;;;;;5132634;27;20956;-63
2021/04/11 01:22:57;;;;;;;9.70;6.00;;;10.10;99.90;;;;;;5132970;27;20528;-64
2021/04/11 01:25:30;;;;;;;8.30;5.70;;;10.10;99.90;;;;;;5132476;27;20586;-64
2021/04/11 01:27:59;;;;;;;9.83;5.77;;;10.10;99.90;;;;;;5132447;27;20483;-64
2021/04/11 01:30:30;;;;;;;8.70;5.53;;;10.10;99.90;;;;;;5132502;27;20547;-64
2021/04/11 01:32:57;;;;;;;9.13;5.80;;;10.10;99.90;;;;;;5133171;27;20499;-64
2021/04/11 01:35:26;;;;;;;9.67;5.73;;;10.00;99.90;;;;;;5132307;27;20466;-64
2021/04/11 01:37:55;;;;;;;8.43;5.70;;;10.10;99.90;;;;;;5132584;27;20445;-63
2021/04/11 01:40:28;;;;;;;10.70;5.80;;;10.00;99.90;;;;;;5132654;28;20453;-64
2021/04/11 01:42:54;;;;;;;11.10;6.03;;;10.10;99.90;;;;;;5132028;27;20448;-63
2021/04/11 01:45:22;;;;;;;8.20;5.73;;;10.10;99.90;;;;;;5132398;27;20476;-63
2021/04/11 01:47:48;;;;;;;11.17;5.23;;;10.10;99.90;;;;;;5132495;28;20440;-63
2021/04/11 01:50:15;;;;;;;9.27;6.10;;;10.00;99.90;;;;;;5132754;27;20480;-64
2021/04/11 01:52:42;;;;;;;11.57;5.90;;;10.00;99.90;;;;;;5132982;27;20508;-64
2021/04/11 01:55:11;;;;;;;9.20;5.77;;;10.00;99.90;;;;;;5132946;27;20445;-64
2021/04/11 01:57:39;;;;;;;8.30;5.40;;;10.00;99.90;;;;;;5132396;28;20457;-64
2021/04/11 02:00:17;;;;;;;10.30;5.67;;;10.00;99.90;;;;;;5131382;27;20444;-64
2021/04/11 02:02:43;;;;;;;9.00;6.70;;;10.10;99.90;;;;;;5132437;27;20437;-64
2021/04/11 02:05:14;;;;;;;8.33;5.60;;;10.10;99.90;;;;;;5132747;27;20494;-64
2021/04/11 02:07:41;;;;;;;9.43;5.67;;;10.10;99.90;;;;;;5132134;27;20549;-64
2021/04/11 02:10:08;;;;;;;11.10;6.30;;;10.10;99.90;;;;;;5132735;27;20447;-64
2021/04/11 02:12:36;;;;;;;8.40;5.50;;;10.10;99.90;;;;;;5132089;27;20504;-64
2021/04/11 02:15:13;;;;;;;10.43;5.90;;;10.10;99.90;;;;;;5132024;27;20448;-63
2021/04/11 02:17:40;;;;;;;10.53;7.00;;;10.10;99.90;;;;;;5130562;27;20459;-64
2021/04/11 02:20:10;;;;;;;7.67;5.10;;;10.10;99.90;;;;;;5132606;27;20604;-63
2021/04/11 02:22:39;;;;;;;9.90;6.80;;;10.20;99.90;;;;;;5132243;28;20524;-63
2021/04/11 02:25:07;;;;;;;10.17;6.30;;;10.20;99.90;;;;;;5132041;27;20491;-64
2021/04/11 02:27:34;;;;;;;8.23;5.40;;;10.20;99.90;;;;;;5131790;27;20440;-64
2021/04/11 02:30:05;;;;;;;9.10;5.90;;;10.30;99.90;;;;;;5131702;27;20933;-63
2021/04/11 02:32:32;;;;;;;8.93;5.53;;;10.30;99.90;;;;;;5131687;28;20532;-63
2021/04/11 02:35:00;;;;;;;8.13;5.37;;;10.30;99.90;;;;;;5140800;27;20490;-63
2021/04/11 02:37:31;;;;;;;12.90;5.77;;;10.30;99.90;;;;;;5132166;27;20861;-63
2021/04/11 02:40:00;;;;;;;8.70;4.93;;;10.30;99.90;;;;;;5151308;27;20444;-64
2021/04/11 02:42:30;;;;;;;10.37;6.50;;;10.40;99.90;;;;;;5153041;27;20542;-63
2021/04/11 02:45:03;;;;;;;9.10;5.67;;;10.40;99.90;;;;;;5139741;27;20586;-64
2021/04/11 02:47:29;;;;;;;10.03;6.47;;;10.40;99.90;;;;;;5131818;27;20444;-64
2021/04/11 02:49:56;;;;;;;11.93;5.90;;;10.40;99.90;;;;;;5133953;27;20995;-63
2021/04/11 02:52:26;;;;;;;8.97;6.00;;;10.50;99.90;;;;;;5135791;27;20444;-63
2021/04/11 02:54:54;;;;;;;9.63;6.53;;;10.40;99.90;;;;;;5135475;27;20817;-64
2021/04/11 02:57:21;;;;;;;8.00;5.07;;;10.40;99.90;;;;;;5135182;27;20460;-65
2021/04/11 02:59:50;;;;;;;8.67;5.83;;;10.40;99.90;;;;;;5135068;27;20535;-64
2021/04/11 03:02:16;;;;;;;15.70;11.87;;;10.50;99.90;;;;;;5135332;27;20573;-64
2021/04/11 03:04:43;;;;;;;23.40;18.10;;;10.40;99.90;;;;;;5146696;27;20522;-64
2021/04/11 03:07:15;;;;;;;31.80;24.43;;;10.40;99.90;;;;;;5136563;27;20527;-64
2021/04/11 03:09:47;;;;;;;31.63;25.27;;;10.30;99.90;;;;;;5142074;27;20534;-64
2021/04/11 03:12:14;;;;;;;35.33;27.80;;;10.10;99.90;;;;;;5156402;27;20478;-64
2021/04/11 03:14:42;;;;;;;39.13;29.10;;;10.00;99.90;;;;;;5149756;27;20451;-64
2021/04/11 03:17:13;;;;;;;34.30;25.87;;;9.80;99.90;;;;;;5135237;27;20479;-64
2021/04/11 03:19:45;;;;;;;44.40;28.73;;;9.80;99.90;;;;;;5134983;27;20444;-64
2021/04/11 03:22:15;;;;;;;37.33;25.97;;;9.60;99.90;;;;;;5135641;27;20551;-64
2021/04/11 03:24:42;;;;;;;37.87;26.40;;;9.60;99.90;;;;;;5134681;27;20963;-64
2021/04/11 03:27:16;;;;;;;30.53;20.40;;;9.50;99.90;;;;;;5135043;27;20448;-63
2021/04/11 03:29:50;;;;;;;18.90;14.60;;;9.30;99.90;;;;;;5135140;27;20440;-64
2021/04/11 03:32:21;;;;;;;14.60;10.50;;;9.30;99.90;;;;;;5134187;27;20448;-63
2021/04/11 03:34:49;;;;;;;11.60;9.50;;;9.20;99.90;;;;;;5134989;27;20942;-63
2021/04/11 03:37:17;;;;;;;10.50;8.00;;;9.10;99.90;;;;;;5134991;27;20497;-64
2021/04/11 03:39:44;;;;;;;10.03;7.37;;;8.90;99.90;;;;;;5134885;27;20984;-64
2021/04/11 03:42:14;;;;;;;10.73;6.87;;;8.70;99.90;;;;;;5134673;27;20527;-64
2021/04/11 03:44:41;;;;;;;11.17;7.73;;;8.60;99.90;;;;;;5135187;27;20444;-64
2021/04/11 03:47:11;;;;;;;10.33;7.30;;;8.50;99.90;;;;;;5133582;27;21009;-64
2021/04/11 03:49:47;;;;;;;11.80;7.67;;;8.40;99.90;;;;;;5134859;27;20531;-63
2021/04/11 03:52:22;;;;;;;10.73;7.53;;;8.40;99.90;;;;;;5134650;27;20455;-63
2021/04/11 03:54:49;;;;;;;8.90;6.57;;;8.20;99.90;;;;;;5134360;27;20425;-63
2021/04/11 03:57:20;;;;;;;12.07;7.00;;;8.10;99.90;;;;;;5134055;27;20277;-63
2021/04/11 03:59:49;;;;;;;7.80;5.00;;;8.10;99.90;;;;;;5134021;27;20440;-64
2021/04/11 04:02:18;;;;;;;7.57;5.33;;;8.00;99.90;;;;;;5124349;27;20573;-64
2021/04/11 04:04:46;;;;;;;10.33;5.53;;;7.90;99.90;;;;;;5133862;27;20530;-63
2021/04/11 04:07:14;;;;;;;7.00;4.77;;;7.80;99.90;;;;;;5134351;27;20449;-64
2021/04/11 04:09:44;;;;;;;10.00;6.60;;;7.80;99.90;;;;;;5134105;27;20463;-69
2021/04/11 04:13:17;;;;;;;8.17;5.53;;;7.70;99.90;;;;;;5134438;27;20534;-55
2021/04/11 04:15:59;;;;;;;7.50;4.17;;;7.90;99.90;;;;;;5050033;28;20531;-56
2021/04/11 04:18:47;;;;;;;11.70;7.33;;;8.10;99.90;;;;;;5050285;28;20456;-53
2021/04/11 04:21:35;;;;;;;11.30;7.80;;;8.00;99.90;;;;;;5108082;27;20440;-64
2021/04/11 04:24:13;;;;;;;11.83;8.03;;;7.80;99.90;;;;;;5133952;27;20447;-65
2021/04/11 04:26:47;;;;;;;13.47;7.60;;;7.70;99.90;;;;;;5134036;27;20880;-66
2021/04/11 04:29:24;;;;;;;11.37;6.80;;;7.70;99.90;;;;;;5133838;27;21029;-66
2021/04/11 04:32:09;;;;;;;10.93;7.10;;;7.60;99.90;;;;;;5134027;27;20447;-65
2021/04/11 04:34:42;;;;;;;9.17;6.20;;;7.50;99.90;;;;;;5133153;27;20535;-64
2021/04/11 04:37:18;;;;;;;8.30;5.80;;;7.40;99.90;;;;;;5133081;27;20436;-65
2021/04/11 04:39:52;;;;;;;7.57;5.10;;;7.30;99.90;;;;;;5133328;27;20525;-63
2021/04/11 04:42:28;;;;;;;8.23;5.50;;;7.20;99.90;;;;;;5134017;27;20538;-65
2021/04/11 04:45:02;;;;;;;8.37;6.03;;;7.20;99.90;;;;;;5132998;27;20450;-65
2021/04/11 04:47:42;;;;;;;9.23;5.70;;;7.00;99.90;;;;;;5115977;27;20458;-66
2021/04/11 04:50:15;;;;;;;8.03;5.40;;;7.10;99.90;;;;;;5133472;27;20444;-64
2021/04/11 04:52:46;;;;;;;8.47;5.87;;;7.00;99.90;;;;;;5133881;27;20531;-63
2021/04/11 04:55:18;;;;;;;10.20;6.80;;;6.90;99.90;;;;;;5132932;27;20539;-66
2021/04/11 04:57:51;;;;;;;9.80;6.60;;;6.90;99.90;;;;;;5133382;27;20526;-65
2021/04/11 05:00:22;;;;;;;9.43;6.40;;;6.90;99.90;;;;;;5133392;27;20446;-66
2021/04/11 05:02:55;;;;;;;9.03;5.73;;;6.80;99.90;;;;;;5133123;27;20471;-65
2021/04/11 05:05:23;;;;;;;9.13;6.07;;;6.80;99.90;;;;;;5133034;27;20818;-65
2021/04/11 05:07:55;;;;;;;7.70;5.30;;;6.70;99.90;;;;;;5132788;27;20829;-64
2021/04/11 05:10:26;;;;;;;7.57;4.77;;;6.70;99.90;;;;;;5132208;27;20936;-64
2021/04/11 05:13:00;;;;;;;7.63;5.07;;;6.80;99.90;;;;;;5132994;27;20534;-66
2021/04/11 05:15:31;;;;;;;7.60;4.47;;;6.70;99.90;;;;;;5133323;27;20518;-65
2021/04/11 05:18:01;;;;;;;6.93;4.43;;;6.60;99.90;;;;;;5132687;27;20467;-66
2021/04/11 05:20:32;;;;;;;6.33;3.70;;;6.60;99.90;;;;;;5130972;27;20455;-66
2021/04/11 05:23:08;;;;;;;7.63;5.00;;;6.60;99.90;;;;;;5132686;27;20448;-63
2021/04/11 05:25:39;;;;;;;13.97;9.27;;;6.70;99.90;;;;;;5135313;27;20489;-65
2021/04/11 05:28:12;;;;;;;104.73;51.20;;;6.60;99.90;;;;;;5133226;27;20451;-66
2021/04/11 05:30:42;;;;;;;26.07;21.50;;;6.60;99.90;;;;;;5133330;27;20847;-65
2021/04/11 05:33:13;;;;;;;13.57;10.30;;;6.50;99.90;;;;;;5132364;27;20560;-64
2021/04/11 05:35:40;;;;;;;10.63;7.00;;;6.60;99.90;;;;;;5132436;27;20464;-66
2021/04/11 05:38:15;;;;;;;13.30;10.10;;;6.60;99.90;;;;;;5132967;27;20465;-66
2021/04/11 05:40:47;;;;;;;14.57;10.53;;;6.60;99.90;;;;;;5132876;28;20538;-66
2021/04/11 05:43:23;;;;;;;14.77;10.77;;;6.60;99.90;;;;;;5132897;28;20444;-65
2021/04/11 05:45:56;;;;;;;17.87;12.43;;;6.50;99.90;;;;;;5132081;27;20560;-65
2021/04/11 05:48:29;;;;;;;19.60;14.63;;;6.50;99.90;;;;;;5131818;27;20929;-66
2021/04/11 05:51:01;;;;;;;25.60;22.13;;;6.30;99.90;;;;;;5132554;28;20490;-65
2021/04/11 05:53:34;;;;;;;21.70;16.27;;;6.30;99.90;;;;;;5133031;28;20524;-64
2021/04/11 05:56:05;;;;;;;25.17;19.40;;;6.40;99.90;;;;;;5131601;27;20444;-66
2021/04/11 05:58:38;;;;;;;20.23;14.10;;;6.40;99.90;;;;;;5128660;28;21028;-65
2021/04/11 06:01:08;;;;;;;18.80;13.90;;;6.30;99.90;;;;;;5125824;27;20490;-65
2021/04/11 06:03:36;;;;;;;20.17;16.63;;;6.20;99.90;;;;;;5126808;27;20541;-65
2021/04/11 06:06:12;;;;;;;21.23;14.93;;;6.00;99.90;;;;;;5130922;28;20570;-65
2021/04/11 06:08:44;;;;;;;20.27;14.93;;;6.10;99.90;;;;;;5132128;27;20948;-66
2021/04/11 06:11:20;;;;;;;18.77;14.63;;;6.10;99.90;;;;;;5132571;28;20553;-65
2021/04/11 06:13:52;;;;;;;19.20;14.80;;;6.20;99.90;;;;;;5132168;27;21003;-65
2021/04/11 06:16:20;;;;;;;20.80;16.40;;;6.30;99.90;;;;;;5124213;28;20447;-64
2021/04/11 06:18:51;;;;;;;18.50;14.83;;;6.40;99.90;;;;;;5131728;27;20476;-66
2021/04/11 06:21:25;;;;;;;22.73;16.53;;;6.40;99.90;;;;;;5124264;27;20448;-65
2021/04/11 06:23:57;;;;;;;18.93;15.10;;;6.40;99.90;;;;;;5133904;27;20446;-65
2021/04/11 06:26:35;;;;;;;18.47;13.90;;;6.40;99.90;;;;;;5136082;27;20485;-66
2021/04/11 06:29:07;;;;;;;19.83;14.73;;;6.40;99.90;;;;;;5136035;27;20453;-65
2021/04/11 06:31:38;;;;;;;17.80;14.60;;;6.40;99.90;;;;;;5134199;27;20496;-64
2021/04/11 06:34:10;;;;;;;22.63;16.73;;;6.40;99.90;;;;;;5135320;27;20847;-65
2021/04/11 06:36:39;;;;;;;32.50;21.20;;;6.40;99.90;;;;;;5136101;27;20454;-65
2021/04/11 06:39:10;;;;;;;30.10;21.60;;;6.20;99.90;;;;;;5131298;27;20453;-65
2021/04/11 06:42:01;;;;;;;27.10;19.53;;;6.10;99.90;;;;;;5136174;27;20597;-65
2021/04/11 06:44:48;;;;;;;23.13;17.87;;;6.00;99.90;;;;;;5089081;27;20548;-65
2021/04/11 06:47:48;;;;;;;24.17;17.20;;;6.00;99.90;;;;;;5131246;27;20570;-66
2021/04/11 06:50:26;;;;;;;23.20;16.20;;;5.90;99.90;;;;;;5133808;27;20548;-66
2021/04/11 06:53:14;;;;;;;28.83;20.80;;;6.00;99.90;;;;;;5134188;27;20446;-63
2021/04/11 06:56:22;;;;;;;30.17;20.98;;;6.00;99.90;;;;;;5134655;27;20906;-63
2021/04/11 06:58:55;;;;;;;33.43;21.37;;;6.00;99.90;;;;;;5135378;27;20206;-65
2021/04/11 07:01:49;;;;;;;30.40;21.90;;;6.00;99.90;;;;;;5135789;27;20452;-65
2021/04/11 07:04:45;;;;;;;34.13;23.93;;;5.80;99.90;;;;;;5137111;27;20547;-65
2021/04/11 07:07:46;;;;;;;31.13;21.07;;;5.90;99.90;;;;;;5136823;27;20483;-66
2021/04/11 07:10:31;;;;;;;28.30;22.63;;;5.90;99.90;;;;;;5130277;27;20444;-65
2021/04/11 07:13:38;;;;;;;26.50;17.80;;;6.00;99.90;;;;;;5134720;27;20457;-65
2021/04/11 07:16:39;;;;;;;21.40;14.13;;;6.00;99.90;;;;;;5121196;27;20526;-64
2021/04/11 07:19:30;;;;;;;18.70;13.57;;;5.90;99.90;;;;;;5050302;27;20531;-67
2021/04/11 07:22:23;;;;;;;19.23;13.63;;;5.90;99.90;;;;;;5128436;27;20477;-66
2021/04/11 07:25:12;;;;;;;21.33;15.10;;;5.90;99.90;;;;;;5094814;27;20539;-64
2021/04/11 07:27:48;;;;;;;19.73;13.67;;;6.00;99.90;;;;;;5132190;27;20458;-65
2021/04/11 07:30:34;;;;;;;27.27;17.20;;;6.10;99.90;;;;;;5134384;27;21014;-63
2021/04/11 07:33:37;;;;;;;21.27;14.53;;;6.00;99.90;;;;;;5125996;27;20452;-65
2021/04/11 07:36:21;;;;;;;29.20;17.00;;;6.10;99.90;;;;;;5128862;27;20534;-65
2021/04/11 07:39:04;;;;;;;26.00;18.20;;;5.90;99.90;;;;;;5133921;27;20855;-64
2021/04/11 07:41:42;;;;;;;21.73;15.67;;;5.80;99.90;;;;;;5128432;27;20818;-66
2021/04/11 07:44:34;;;;;;;26.67;16.10;;;5.90;99.90;;;;;;5133026;27;20455;-65
2021/04/11 07:47:14;;;;;;;22.10;15.80;;;5.90;99.90;;;;;;5133139;27;20965;-65
2021/04/11 07:50:05;;;;;;;24.07;17.73;;;6.10;99.90;;;;;;5134039;27;20450;-66
2021/04/11 07:52:53;;;;;;;20.87;14.60;;;6.10;99.90;;;;;;5134500;27;20447;-64
2021/04/11 07:55:28;;;;;;;18.40;12.60;;;6.20;99.90;;;;;;5133977;27;20495;-65
2021/04/11 07:58:11;;;;;;;17.93;12.47;;;6.30;99.90;;;;;;5134552;27;20512;-66
2021/04/11 08:01:15;;;;;;;11.90;8.23;;;6.20;99.90;;;;;;5133548;27;20455;-65
2021/04/11 08:04:23;;;;;;;9.50;6.37;;;6.40;99.90;;;;;;5119237;27;20539;-65
2021/04/11 08:07:19;;;;;;;8.97;6.27;;;6.50;99.90;;;;;;5128402;27;20488;-66
2021/04/11 08:09:50;;;;;;;8.77;5.50;;;6.50;99.90;;;;;;5134298;27;20458;-65
2021/04/11 08:12:42;;;;;;;9.07;5.77;;;6.50;99.90;;;;;;5134199;27;20576;-66
2021/04/11 08:15:21;;;;;;;10.60;6.77;;;6.50;99.90;;;;;;5114003;28;20533;-67
2021/04/11 08:18:32;;;;;;;12.70;6.60;;;6.50;99.90;;;;;;5125936;27;20459;-65
2021/04/11 08:21:15;;;;;;;14.13;6.77;;;6.50;99.90;;;;;;5118763;27;20935;-64
2021/04/11 08:24:24;;;;;;;9.30;6.00;;;6.40;99.90;;;;;;5134375;27;20488;-64
2021/04/11 08:27:21;;;;;;;10.10;7.10;;;6.20;99.90;;;;;;5113077;28;20576;-64
2021/04/11 08:30:20;;;;;;;12.80;7.93;;;6.20;99.90;;;;;;5113768;28;20888;-67
2021/04/11 08:33:17;;;;;;;16.50;10.60;;;6.20;99.90;;;;;;5079450;28;20452;-66
2021/04/11 08:36:06;;;;;;;21.60;12.27;;;6.20;99.90;;;;;;5113307;28;20527;-66
2021/04/11 08:39:02;;;;;;;19.83;14.00;;;6.10;99.90;;;;;;5119380;27;20444;-65
2021/04/11 08:41:57;;;;;;;20.13;13.50;;;6.10;99.90;;;;;;5133825;27;20448;-66
2021/04/11 08:44:39;;;;;;;16.20;10.40;;;6.10;99.90;;;;;;5131203;27;20449;-66
2021/04/11 08:47:17;;;;;;;30.43;18.70;;;6.20;99.90;;;;;;5131812;27;20996;-66
2021/04/11 08:49:46;;;;;;;13.77;9.70;;;6.20;99.90;;;;;;5132015;27;20533;-66
2021/04/11 08:52:23;;;;;;;12.90;8.10;;;6.10;99.90;;;;;;5127197;27;20456;-67
2021/04/11 08:54:57;;;;;;;10.07;6.87;;;6.10;99.90;;;;;;5132080;27;20406;-67
2021/04/11 08:57:43;;;;;;;9.70;6.00;;;6.20;99.90;;;;;;5126858;27;20883;-66
2021/04/11 09:00:18;;;;;;;8.53;5.77;;;6.20;99.90;;;;;;5132585;27;20475;-68
2021/04/11 09:02:58;;;;;;;9.33;5.70;;;6.20;99.90;;;;;;5130014;27;20443;-67
2021/04/11 09:05:34;;;;;;;9.63;5.47;;;6.20;99.90;;;;;;5129644;27;20451;-66
2021/04/11 09:08:14;;;;;;;8.67;4.90;;;6.20;99.90;;;;;;5130495;27;20527;-66
2021/04/11 09:10:55;;;;;;;9.10;4.97;;;6.20;99.90;;;;;;5128462;27;20536;-67
2021/04/11 09:13:37;;;;;;;7.87;4.80;;;6.30;99.90;;;;;;5129921;27;20448;-65
2021/04/11 09:16:10;;;;;;;6.27;3.47;;;6.30;99.90;;;;;;5129419;27;20448;-67
2021/04/11 09:18:47;;;;;;;7.50;4.27;;;6.20;99.90;;;;;;5130817;27;20530;-64
2021/04/11 09:21:31;;;;;;;7.63;3.97;;;6.20;99.90;;;;;;5132212;27;20448;-65
2021/04/11 09:24:04;;;;;;;8.77;5.83;;;6.20;99.90;;;;;;5134475;27;20439;-67
2021/04/11 09:27:11;;;;;;;11.43;6.97;;;6.20;99.90;;;;;;5130987;27;20470;-66
2021/04/11 09:30:02;;;;;;;9.67;6.07;;;6.30;99.90;;;;;;5130641;27;20900;-64
2021/04/11 09:33:10;;;;;;;9.33;5.83;;;6.20;99.90;;;;;;5129776;27;20975;-64
2021/04/11 09:35:42;;;;;;;10.10;6.37;;;6.20;99.90;;;;;;5120925;27;20508;-65
2021/04/11 09:38:40;;;;;;;7.70;5.33;;;6.20;99.90;;;;;;5132242;27;20439;-66
2021/04/11 09:41:42;;;;;;;8.43;5.20;;;6.20;99.90;;;;;;5127774;27;20447;-64
2021/04/11 09:44:34;;;;;;;8.63;5.33;;;6.30;99.90;;;;;;5065350;28;20535;-65
2021/04/11 09:47:39;;;;;;;7.57;5.20;;;6.20;99.90;;;;;;5122065;28;20480;-66
2021/04/11 09:50:29;;;;;;;7.57;3.80;;;6.20;99.90;;;;;;5062194;28;20992;-66
2021/04/11 09:53:23;;;;;;;7.17;2.80;;;6.10;99.90;;;;;;5063536;28;20534;-64
2021/04/11 09:56:00;;;;;;;5.60;2.70;;;6.30;99.90;;;;;;5112565;27;20542;-64
2021/04/11 09:58:41;;;;;;;5.80;2.57;;;6.30;99.90;;;;;;5125718;27;20476;-64
2021/04/11 10:01:18;;;;;;;10.07;3.57;;;6.40;99.90;;;;;;5131665;27;20539;-65
2021/04/11 10:03:59;;;;;;;11.60;3.30;;;6.40;99.90;;;;;;5135892;27;20546;-67
2021/04/11 10:06:54;;;;;;;6.43;2.67;;;6.60;99.90;;;;;;5137421;27;21044;-67
2021/04/11 10:09:47;;;;;;;6.20;2.87;;;6.50;99.90;;;;;;5135304;27;20444;-67
2021/04/11 10:12:40;;;;;;;6.80;2.67;;;6.50;99.90;;;;;;5134977;27;20439;-64
2021/04/11 10:15:18;;;;;;;6.20;3.43;;;6.50;99.90;;;;;;5128710;27;20444;-65
2021/04/11 10:18:14;;;;;;;5.90;3.00;;;6.60;99.90;;;;;;5135549;27;20452;-65
2021/04/11 10:20:50;;;;;;;5.60;2.70;;;6.70;99.90;;;;;;5127649;27;20499;-65
2021/04/11 10:23:26;;;;;;;5.00;2.50;;;6.80;99.90;;;;;;5126064;27;20527;-66
2021/04/11 10:25:57;;;;;;;13.30;3.13;;;6.80;99.90;;;;;;5134356;27;20566;-66
2021/04/11 10:28:35;;;;;;;7.20;2.50;;;6.90;99.90;;;;;;5135244;27;20500;-67
2021/04/11 10:31:10;;;;;;;5.90;2.17;;;7.00;99.90;;;;;;5132191;27;20546;-66
2021/04/11 10:33:46;;;;;;;4.90;2.03;;;7.20;99.90;;;;;;5134460;27;20442;-65
2021/04/11 10:36:16;;;;;;;7.53;2.00;;;8.10;99.90;;;;;;5123307;27;20471;-66
2021/04/11 10:38:49;;;;;;;4.60;1.60;;;7.50;99.90;;;;;;5136104;27;20535;-65
2021/04/11 10:41:42;;;;;;;5.80;2.23;;;7.60;99.90;;;;;;5136205;27;20534;-66
2021/04/11 10:44:21;;;;;;;4.67;1.77;;;7.60;99.90;;;;;;5114669;28;20507;-65
2021/04/11 10:47:04;;;;;;;4.50;1.83;;;7.70;99.90;;;;;;5134082;27;20510;-66
2021/04/11 10:49:41;;;;;;;4.80;1.70;;;7.60;99.90;;;;;;5139708;27;20533;-65
2021/04/11 10:52:40;;;;;;;4.90;1.70;;;7.50;99.90;;;;;;5132190;27;20823;-66
2021/04/11 10:55:27;;;;;;;4.83;1.67;;;7.70;99.90;;;;;;5118703;27;20491;-65
2021/04/11 10:58:30;;;;;;;15.97;2.60;;;7.80;99.90;;;;;;5130721;27;20444;-66
2021/04/11 11:01:05;;;;;;;5.60;1.50;;;7.60;99.90;;;;;;5122228;27;20982;-65
2021/04/11 11:04:09;;;;;;;4.37;1.50;;;7.50;99.90;;;;;;5133726;27;20532;-67
2021/04/11 11:07:05;;;;;;;5.80;2.23;;;7.50;99.90;;;;;;5124679;27;20509;-65
2021/04/11 11:09:38;;;;;;;8.00;3.00;;;7.40;99.90;;;;;;5129546;27;20501;-66
2021/04/11 11:12:47;;;;;;;7.87;2.63;;;7.50;99.90;;;;;;5129233;27;20445;-65
2021/04/11 11:15:34;;;;;;;4.60;1.77;;;7.50;99.90;;;;;;5131790;27;20790;-67
2021/04/11 11:18:45;;;;;;;7.20;2.60;;;7.40;99.90;;;;;;5130029;27;20480;-66
2021/04/11 11:21:43;;;;;;;6.20;1.83;;;7.40;99.90;;;;;;5128281;27;20840;-65
2021/04/11 11:24:55;;;;;;;6.80;2.20;;;7.50;99.90;;;;;;5131943;27;20977;-66
2021/04/11 11:27:48;;;;;;;6.53;3.30;;;7.30;99.90;;;;;;5107361;27;20480;-66
2021/04/11 11:30:25;;;;;;;4.63;2.10;;;7.20;99.90;;;;;;5098825;27;20458;-65
2021/04/11 11:33:03;;;;;;;6.67;2.00;;;7.20;99.90;;;;;;5131588;27;20829;-66
2021/04/11 11:35:31;;;;;;;6.23;1.90;;;7.10;99.90;;;;;;5130827;27;20466;-66
2021/04/11 11:38:06;;;;;;;5.57;2.33;;;7.10;99.90;;;;;;5129275;27;20440;-67
2021/04/11 11:40:38;;;;;;;5.90;2.00;;;6.90;99.90;;;;;;5131105;27;20526;-66
2021/04/11 11:43:18;;;;;;;5.60;2.07;;;6.90;99.90;;;;;;5131369;27;20584;-66
2021/04/11 11:46:02;;;;;;;5.47;2.13;;;6.90;99.90;;;;;;5128655;27;20448;-65
2021/04/11 11:48:37;;;;;;;6.50;2.07;;;7.10;99.90;;;;;;5130940;27;20453;-65
2021/04/11 11:51:11;;;;;;;5.50;1.93;;;7.20;99.90;;;;;;5130563;27;20523;-65
2021/04/11 11:53:42;;;;;;;6.97;2.10;;;7.00;99.90;;;;;;5129484;27;20567;-67
2021/04/11 11:56:17;;;;;;;5.83;2.03;;;7.10;99.90;;;;;;5132301;27;20527;-67
2021/04/11 11:58:49;;;;;;;8.13;2.57;;;7.00;99.90;;;;;;5132310;27;20443;-66
2021/04/11 12:01:27;;;;;;;8.90;2.33;;;7.10;99.90;;;;;;5132986;27;20447;-66
2021/04/11 12:04:22;;;;;;;4.87;2.03;;;6.80;99.90;;;;;;5132496;27;20443;-67
2021/04/11 12:06:51;;;;;;;5.10;2.20;;;6.70;99.90;;;;;;5087042;27;20498;-67
2021/04/11 12:09:23;;;;;;;6.10;2.37;;;6.60;99.90;;;;;;5127596;27;20555;-65
2021/04/11 12:11:56;;;;;;;4.83;2.20;;;6.60;99.90;;;;;;5124712;27;20607;-66
2021/04/11 12:14:27;;;;;;;5.10;2.27;;;6.80;99.90;;;;;;5131094;27;20443;-64
2021/04/11 12:17:04;;;;;;;5.40;2.03;;;7.10;99.90;;;;;;5130450;27;20468;-68
2021/04/11 12:19:37;;;;;;;5.67;2.00;;;7.30;99.90;;;;;;5130315;27;20463;-66
2021/04/11 12:22:09;;;;;;;4.97;2.13;;;7.30;99.90;;;;;;5129861;27;20535;-64
2021/04/11 12:24:39;;;;;;;4.77;1.80;;;7.30;99.90;;;;;;5127480;27;20799;-65
2021/04/11 12:27:09;;;;;;;4.70;2.10;;;7.00;99.90;;;;;;5127334;27;20512;-66
2021/04/11 12:29:40;;;;;;;5.33;2.40;;;7.20;99.90;;;;;;5129829;27;20924;-66
2021/04/11 12:32:14;;;;;;;6.03;2.50;;;7.30;99.90;;;;;;5127579;27;20444;-65
2021/04/11 12:34:51;;;;;;;5.77;2.20;;;7.50;99.90;;;;;;5122997;27;20468;-65
2021/04/11 12:37:26;;;;;;;8.30;2.50;;;7.40;99.90;;;;;;5128690;27;20547;-67
2021/04/11 12:40:04;;;;;;;7.70;2.67;;;7.60;99.90;;;;;;5128822;27;20542;-66
2021/04/11 12:42:38;;;;;;;4.80;2.03;;;7.60;99.90;;;;;;5129603;27;20448;-67
2021/04/11 12:45:13;;;;;;;5.60;2.60;;;7.60;99.90;;;;;;5128067;27;20452;-64
2021/04/11 12:47:48;;;;;;;6.40;2.13;;;7.60;99.90;;;;;;5123036;27;20512;-66
2021/04/11 12:50:24;;;;;;;6.77;2.70;;;7.70;99.90;;;;;;5120012;27;22012;-64
2021/04/11 12:53:02;;;;;;;11.03;3.13;;;7.90;99.90;;;;;;5130123;27;20472;-65
2021/04/11 12:55:32;;;;;;;5.77;2.23;;;8.10;99.90;;;;;;5128129;27;20454;-65
2021/04/11 12:58:08;;;;;;;6.60;3.20;;;8.00;99.90;;;;;;5129609;27;20497;-66
2021/04/11 13:00:38;;;;;;;6.37;1.97;;;8.10;99.90;;;;;;5127591;27;20455;-66
2021/04/11 13:03:13;;;;;;;6.47;2.50;;;8.10;99.90;;;;;;5128815;27;20791;-66
2021/04/11 13:05:45;;;;;;;7.23;2.90;;;8.20;99.90;;;;;;5129227;27;20452;-65
2021/04/11 13:08:16;;;;;;;6.70;2.00;;;8.10;99.90;;;;;;5127642;27;20489;-67
2021/04/11 13:10:57;;;;;;;6.83;3.03;;;8.10;99.90;;;;;;5126649;27;20448;-67
2021/04/11 13:13:29;;;;;;;9.33;2.70;;;8.00;99.90;;;;;;5122913;27;20530;-65
2021/04/11 13:16:04;;;;;;;5.83;2.20;;;8.00;99.90;;;;;;5123187;27;20521;-64
2021/04/11 13:18:39;;;;;;;6.10;2.90;;;7.90;99.90;;;;;;5128365;27;20738;-66
2021/04/11 13:21:16;;;;;;;7.67;2.70;;;7.80;99.90;;;;;;5128649;27;20842;-65
2021/04/11 13:23:50;;;;;;;8.57;3.00;;;7.80;99.90;;;;;;5123984;27;20479;-65
2021/04/11 13:26:22;;;;;;;6.60;2.37;;;7.80;99.90;;;;;;5122331;27;20506;-65
2021/04/11 13:29:00;;;;;;;7.83;2.77;;;7.80;99.90;;;;;;5127443;27;20453;-65
2021/04/11 13:31:37;;;;;;;13.77;4.40;;;7.90;99.90;;;;;;5131201;27;20437;-65
2021/04/11 13:34:06;;;;;;;11.47;3.77;;;7.90;99.90;;;;;;5131322;27;20452;-64
2021/04/11 13:36:40;;;;;;;7.53;2.80;;;8.10;99.90;;;;;;5132405;27;21014;-65
2021/04/11 13:39:10;;;;;;;10.20;2.83;;;8.60;99.90;;;;;;5132071;27;20472;-67